Time;durP1;ratioP1;P1;durP2;ratioP2;P2;SDS_P1;SDS_P2;PMS_P1;PMS_P2;Temp;Humidity;BMP_temperature;BMP_pressure;BME280_temperature;BME280_humidity;BME280_pressure;Samples;Min_cycle;Max_cycle;Signal;HPM_P1;HPM_P2
2023/02/13 00:01:52;;;;;;;;;72.50;58.50;;;;;5.62;100.00;103004.63;5100822;27;45500;-75
2023/02/13 00:04:17;;;;;;;;;74.75;57.50;;;;;5.62;100.00;103017.81;5099975;27;45222;-75
2023/02/13 00:06:43;;;;;;;;;73.25;59.00;;;;;5.63;100.00;103015.09;5102370;27;47053;-75
2023/02/13 00:09:09;;;;;;;;;74.75;61.25;;;;;5.59;100.00;103018.84;5099212;27;46933;-75
2023/02/13 00:11:36;;;;;;;;;70.75;55.25;;;;;5.54;100.00;103016.44;5099151;27;45303;-75
2023/02/13 00:14:01;;;;;;;;;68.25;56.25;;;;;5.53;100.00;103025.31;5100533;27;45321;-75
2023/02/13 00:16:27;;;;;;;;;68.75;54.75;;;;;5.54;100.00;103024.38;5100416;27;45327;-75
2023/02/13 00:18:52;;;;;;;;;77.50;61.25;;;;;5.53;100.00;103021.81;5087877;27;46010;-75
2023/02/13 00:21:17;;;;;;;;;78.25;62.00;;;;;5.51;100.00;103015.78;5099111;27;45973;-76
2023/02/13 00:23:43;;;;;;;;;76.50;59.25;;;;;5.52;100.00;103025.38;5100797;27;45438;-75
2023/02/13 00:26:13;;;;;;;;;65.75;54.25;;;;;5.46;100.00;103016.03;5098952;27;46129;-76
2023/02/13 00:28:39;;;;;;;;;61.25;52.25;;;;;5.44;100.00;103020.53;5098896;27;48074;-76
2023/02/13 00:31:10;;;;;;;;;73.75;59.00;;;;;5.45;100.00;103021.38;5095467;27;45309;-75
2023/02/13 00:33:36;;;;;;;;;74.00;59.25;;;;;5.39;100.00;103010.22;5092062;27;45341;-75
2023/02/13 00:36:13;;;;;;;;;71.75;56.75;;;;;5.42;100.00;103020.59;5095356;27;46061;-75
2023/02/13 00:38:40;;;;;;;;;71.00;57.25;;;;;5.40;100.00;103019.00;5093206;27;48366;-75
2023/02/13 00:41:05;;;;;;;;;77.00;60.75;;;;;5.34;100.00;103017.56;5100446;27;45631;-75
2023/02/13 00:43:31;;;;;;;;;77.00;60.50;;;;;5.31;100.00;103012.44;5100157;27;45322;-75
2023/02/13 00:46:00;;;;;;;;;20.00;17.25;;;;;5.30;100.00;103008.94;5100392;27;45362;-75
2023/02/13 00:48:27;;;;;;;;;71.25;58.00;;;;;5.28;100.00;103005.56;5098422;27;47417;-75
2023/02/13 00:50:53;;;;;;;;;75.00;60.25;;;;;5.30;100.00;103016.03;5098809;27;45652;-75
2023/02/13 00:53:19;;;;;;;;;73.00;58.50;;;;;5.26;100.00;103011.81;5098532;27;45196;-75
2023/02/13 00:55:46;;;;;;;;;77.25;63.00;;;;;5.26;100.00;103015.31;5098537;27;46138;-75
2023/02/13 00:58:12;;;;;;;;;76.00;58.50;;;;;5.26;100.00;103017.09;5099619;27;45337;-75
2023/02/13 01:00:38;;;;;;;;;77.75;61.25;;;;;5.24;100.00;103021.63;5099784;27;45326;-75
2023/02/13 01:03:03;;;;;;;;;74.00;59.00;;;;;5.22;100.00;103018.22;5099816;27;45504;-75
2023/02/13 01:05:29;;;;;;;;;78.50;62.75;;;;;5.20;100.00;103014.81;5094996;27;46130;-75
2023/02/13 01:07:55;;;;;;;;;76.00;60.75;;;;;5.13;100.00;103004.59;5100671;27;45413;-75
2023/02/13 01:10:20;;;;;;;;;79.75;64.50;;;;;5.16;100.00;103014.97;5098685;27;45316;-75
2023/02/13 01:12:46;;;;;;;;;76.75;60.25;;;;;5.08;100.00;102998.72;5099880;27;45625;-75
2023/02/13 01:15:11;;;;;;;;;77.75;60.00;;;;;5.10;100.00;103006.53;5099504;27;45383;-74
2023/02/13 01:17:38;;;;;;;;;79.25;60.75;;;;;5.10;100.00;103009.16;5099649;27;45251;-75
2023/02/13 01:20:08;;;;;;;;;77.75;59.50;;;;;5.00;100.00;103000.91;5099866;27;45340;-76
2023/02/13 01:22:33;;;;;;;;;79.00;62.75;;;;;4.97;100.00;103001.06;5099690;27;45526;-75
2023/02/13 01:24:59;;;;;;;;;81.75;64.75;;;;;4.96;100.00;103007.25;5098214;27;47132;-75
2023/02/13 01:27:26;;;;;;;;;81.50;64.00;;;;;4.90;100.00;103008.44;5099552;27;45333;-75
2023/02/13 01:29:52;;;;;;;;;79.50;63.50;;;;;4.90;100.00;103000.53;5099582;27;45346;-75
2023/02/13 01:32:17;;;;;;;;;73.50;59.00;;;;;4.89;100.00;103010.25;5097409;27;45325;-75
2023/02/13 01:34:42;;;;;;;;;66.00;55.50;;;;;4.87;100.00;103012.09;5099511;27;45586;-75
2023/02/13 01:37:08;;;;;;;;;72.25;58.25;;;;;4.81;100.00;103012.41;5099458;27;45221;-75
2023/02/13 01:39:33;;;;;;;;;71.00;57.50;;;;;4.82;100.00;103006.19;5099730;27;45582;-75
2023/02/13 01:41:58;;;;;;;;;77.50;60.75;;;;;4.82;100.00;103006.19;5099471;27;45140;-75
2023/02/13 01:44:45;;;;;;;;;75.75;56.50;;;;;4.83;100.00;103009.69;5099490;27;45164;-75
2023/02/13 01:47:13;;;;;;;;;74.25;60.25;;;;;4.76;100.00;102996.84;5097601;27;46375;-75
2023/02/13 01:49:40;;;;;;;;;67.75;54.75;;;;;4.78;100.00;103005.53;5085960;27;45349;-75
2023/02/13 01:52:08;;;;;;;;;70.25;57.00;;;;;4.83;100.00;102997.38;5086187;27;45180;-75
2023/02/13 01:54:35;;;;;;;;;70.75;56.00;;;;;4.80;100.00;102998.41;5098995;27;45291;-76
2023/02/13 01:57:23;;;;;;;;;70.00;57.75;;;;;4.84;100.00;102995.56;5099286;27;45464;-75
2023/02/13 01:59:55;;;;;;;;;71.50;57.75;;;;;4.89;100.00;102997.06;5099093;27;45311;-75
2023/02/13 02:02:21;;;;;;;;;71.00;57.25;;;;;4.93;100.00;102995.97;5081209;27;45409;-75
2023/02/13 02:04:47;;;;;;;;;67.00;53.75;;;;;4.96;100.00;102994.06;5099156;27;45311;-75
2023/02/13 02:07:18;;;;;;;;;61.75;51.25;;;;;4.97;100.00;102994.00;5102114;27;46404;-75
2023/02/13 02:09:44;;;;;;;;;56.50;47.25;;;;;4.97;100.00;103001.91;5099063;27;45301;-75
2023/02/13 02:12:10;;;;;;;;;63.00;49.25;;;;;4.98;100.00;103001.00;5099217;27;45339;-75
2023/02/13 02:14:36;;;;;;;;;57.75;48.25;;;;;4.96;100.00;102992.31;5098754;27;45572;-75
2023/02/13 02:17:02;;;;;;;;;63.75;49.75;;;;;4.93;100.00;102990.69;5097275;27;48054;-76
2023/02/13 02:19:45;;;;;;;;;62.50;52.50;;;;;4.91;100.00;102987.28;5098809;27;45315;-75
2023/02/13 02:22:48;;;;;;;;;67.75;54.25;;;;;4.87;100.00;102982.25;5098847;27;45503;-75
2023/02/13 02:25:16;;;;;;;;;69.25;54.25;;;;;4.85;100.00;102992.88;5090400;27;45583;-75
2023/02/13 02:28:10;;;;;;;;;62.50;49.00;;;;;4.79;100.00;102986.13;5100550;27;46093;-75
2023/02/13 02:30:56;;;;;;;;;70.00;56.50;;;;;4.81;100.00;102991.31;5101999;27;45236;-75
2023/02/13 02:33:26;;;;;;;;;62.25;51.25;;;;;4.82;100.00;102985.13;5102170;27;45482;-75
2023/02/13 02:36:19;;;;;;;;;65.75;51.50;;;;;4.87;100.00;102991.00;5088436;27;45264;-75
2023/02/13 02:39:03;;;;;;;;;70.00;54.50;;;;;4.84;100.00;102979.75;5102172;27;45566;-75
2023/02/13 02:41:57;;;;;;;;;64.75;51.75;;;;;4.82;100.00;102985.13;5102099;27;45485;-75
2023/02/13 02:44:34;;;;;;;;;61.75;50.00;;;;;4.84;100.00;102985.03;5100905;27;45444;-75
2023/02/13 02:50:09;;;;;;;;;63.50;52.25;;;;;4.76;100.00;102985.47;5098107;27;45316;-75
2023/02/13 02:52:40;;;;;;;;;54.75;44.50;;;;;4.70;100.00;102976.06;5102020;27;45242;-76
2023/02/13 02:55:21;;;;;;;;;70.00;54.25;;;;;4.67;100.00;102978.91;5101754;27;45489;-75
2023/02/13 03:06:29;;;;;;;;;69.00;55.75;;;;;4.57;100.00;102985.53;5104609;27;45230;-77
2023/02/13 03:14:33;;;;;;;;;70.50;57.75;;;;;4.43;100.00;102979.19;5101364;27;45161;-76
2023/02/13 03:23:14;;;;;;;;;61.75;51.00;;;;;4.32;100.00;102981.53;5101105;27;45738;-75
2023/02/13 03:25:54;;;;;;;;;65.50;52.25;;;;;4.32;100.00;102984.16;5092651;27;45274;-75
2023/02/13 03:31:33;;;;;;;;;60.75;51.00;;;;;4.28;100.00;102986.97;5101293;27;45451;-76
2023/02/13 03:34:10;;;;;;;;;63.25;50.75;;;;;4.25;100.00;102991.53;5100866;27;45365;-75
2023/02/13 03:39:22;;;;;;;;;66.50;54.00;;;;;4.27;100.00;102994.94;5099888;27;45281;-75
2023/02/13 03:41:56;;;;;;;;;54.00;46.00;;;;;4.22;100.00;102986.44;5101157;27;45372;-75
2023/02/13 03:44:27;;;;;;;;;63.25;50.75;;;;;4.23;100.00;102990.75;5101161;27;45424;-75
2023/02/13 03:46:57;;;;;;;;;54.75;47.00;;;;;4.20;100.00;102983.88;5087193;27;45323;-75
2023/02/13 03:52:18;;;;;;;;;62.25;50.00;;;;;4.15;100.00;102991.13;5100828;27;45281;-75
2023/02/13 04:00:28;;;;;;;;;59.75;48.25;;;;;4.06;100.00;102989.81;5101119;27;45397;-75
2023/02/13 04:03:09;;;;;;;;;57.75;45.25;;;;;4.07;100.00;102993.31;5100469;27;45611;-75
2023/02/13 04:05:40;;;;;;;;;61.00;50.50;;;;;4.09;100.00;102994.94;5100996;27;45429;-75
2023/02/13 04:08:06;;;;;;;;;62.75;51.25;;;;;4.07;100.00;102995.94;5100698;27;45396;-75
2023/02/13 04:10:35;;;;;;;;;62.25;50.00;;;;;3.92;100.00;102972.91;5100941;27;45626;-75
2023/02/13 04:13:04;;;;;;;;;62.25;49.25;;;;;4.07;100.00;102999.41;5100260;27;45400;-75
2023/02/13 04:15:44;;;;;;;;;63.00;49.75;;;;;4.07;100.00;103003.81;5095919;27;47658;-75
2023/02/13 04:18:16;;;;;;;;;57.25;47.00;;;;;4.01;100.00;103002.34;5098163;27;45346;-75
2023/02/13 04:20:42;;;;;;;;;65.25;53.75;;;;;4.01;100.00;103000.56;5100560;27;45382;-75
2023/02/13 04:23:09;;;;;;;;;57.50;48.00;;;;;3.97;100.00;102996.38;5100107;27;45314;-76
2023/02/13 04:25:37;;;;;;;;;61.75;50.00;;;;;3.99;100.00;102997.16;5100358;27;46296;-75
2023/02/13 04:28:03;;;;;;;;;63.50;50.25;;;;;3.99;100.00;103006.84;5100437;27;45285;-75
2023/02/13 04:30:29;;;;;;;;;86.00;66.75;;;;;3.95;100.00;103006.13;5100208;27;45196;-75
2023/02/13 04:32:54;;;;;;;;;80.25;65.50;;;;;3.89;100.00;102998.53;5100140;27;45270;-75
2023/02/13 04:35:20;;;;;;;;;72.00;57.50;;;;;3.86;100.00;102996.88;5098404;27;47156;-75
2023/02/13 04:37:45;;;;;;;;;67.50;54.50;;;;;3.89;100.00;103007.28;5099212;27;46248;-75
2023/02/13 04:40:11;;;;;;;;;70.00;56.25;;;;;3.86;100.00;103006.59;5099078;27;45582;-75
2023/02/13 04:42:36;;;;;;;;;68.00;53.75;;;;;3.86;100.00;103001.31;5100341;27;45366;-75
2023/02/13 04:45:01;;;;;;;;;69.00;54.25;;;;;3.84;100.00;102997.91;5099956;27;45381;-75
2023/02/13 04:47:27;;;;;;;;;68.75;56.00;;;;;3.85;100.00;103000.47;5095374;27;45342;-75
2023/02/13 04:49:52;;;;;;;;;76.00;59.75;;;;;3.86;100.00;102998.69;5093406;27;45375;-75
2023/02/13 04:52:17;;;;;;;;;75.25;60.75;;;;;3.88;100.00;102996.81;5100025;27;45442;-76
2023/02/13 04:54:43;;;;;;;;;71.75;58.25;;;;;3.90;100.00;102995.81;5100008;27;45378;-76
2023/02/13 04:57:08;;;;;;;;;75.25;59.00;;;;;3.88;100.00;102996.81;5099999;27;45379;-75
2023/02/13 04:59:34;;;;;;;;;72.50;58.25;;;;;3.96;100.00;102997.31;5099773;27;45461;-75
2023/02/13 05:01:59;;;;;;;;;78.00;61.75;;;;;3.89;100.00;102996.75;5099786;27;45389;-75
2023/02/13 05:04:25;;;;;;;;;75.75;59.50;;;;;3.88;100.00;103002.06;5098483;27;48517;-75
2023/02/13 05:06:50;;;;;;;;;78.00;63.00;;;;;3.84;100.00;103003.16;5092391;27;45316;-76
2023/02/13 05:09:16;;;;;;;;;77.25;62.50;;;;;3.81;100.00;102998.03;5098633;27;45503;-75
2023/02/13 05:11:41;;;;;;;;;74.00;58.75;;;;;3.83;100.00;103004.09;5099536;27;45291;-75
2023/02/13 05:14:08;;;;;;;;;69.00;55.50;;;;;3.82;100.00;102992.72;5099645;27;45277;-76
2023/02/13 05:16:33;;;;;;;;;66.50;55.00;;;;;3.87;100.00;103003.00;5099864;27;45234;-75
2023/02/13 05:18:59;;;;;;;;;73.75;58.00;;;;;3.85;100.00;103007.47;5099799;27;45369;-75
2023/02/13 05:24:08;;;;;;;;;61.75;48.50;;;;;3.85;100.00;102999.59;5099622;27;45221;-75
2023/02/13 05:26:33;;;;;;;;;66.25;53.00;;;;;3.85;100.00;102999.59;5099584;27;45297;-75
2023/02/13 05:31:42;;;;;;;;;66.00;54.75;;;;;3.84;100.00;103000.53;5099320;27;45239;-75
2023/02/13 05:34:08;;;;;;;;;71.50;56.25;;;;;3.82;100.00;103003.22;5099264;27;45308;-75
2023/02/13 05:36:33;;;;;;;;;63.50;52.75;;;;;3.78;100.00;102996.41;5099805;27;45290;-76
2023/02/13 05:38:59;;;;;;;;;63.00;51.00;;;;;3.86;100.00;102998.69;5099487;27;45500;-77
2023/02/13 05:41:24;;;;;;;;;70.50;55.50;;;;;3.87;100.00;103000.38;5099583;27;45449;-75
2023/02/13 05:43:50;;;;;;;;;69.25;56.75;;;;;3.83;100.00;102997.03;5097504;27;48348;-75
2023/02/13 05:46:15;;;;;;;;;69.25;55.75;;;;;3.87;100.00;102993.34;5099542;27;45312;-76
2023/02/13 05:48:40;;;;;;;;;58.00;49.00;;;;;3.87;100.00;102988.09;5099153;27;45400;-76
2023/02/13 05:51:06;;;;;;;;;60.00;49.50;;;;;3.84;100.00;102980.34;5099440;27;45552;-75
2023/02/13 05:53:35;;;;;;;;;62.25;52.00;;;;;3.89;100.00;102986.22;5095358;27;45559;-75
2023/02/13 05:56:02;;;;;;;;;63.25;52.00;;;;;3.84;100.00;102967.19;5090137;27;45333;-76
2023/02/13 05:58:27;;;;;;;;;62.25;50.75;;;;;3.88;100.00;102974.00;5099099;27;45490;-76
2023/02/13 06:00:57;;;;;;;;;58.00;48.25;;;;;3.86;100.00;102975.84;5099485;27;45278;-75
2023/02/13 06:03:23;;;;;;;;;62.50;52.25;;;;;3.89;100.00;102980.13;5101810;27;46586;-75
2023/02/13 06:05:48;;;;;;;;;62.25;48.50;;;;;3.93;100.00;102979.03;5103741;27;45376;-75
2023/02/13 06:08:13;;;;;;;;;59.50;49.75;;;;;3.92;100.00;102983.44;5104435;27;45364;-76
2023/02/13 06:10:39;;;;;;;;;59.25;50.25;;;;;3.90;100.00;102964.22;5102824;27;45325;-75
2023/02/13 06:13:04;;;;;;;;;64.25;50.00;;;;;3.90;100.00;102972.13;5096968;27;46233;-75
2023/02/13 06:15:29;;;;;;;;;58.25;46.50;;;;;3.91;100.00;102970.34;5096317;27;45383;-75
2023/02/13 06:17:55;;;;;;;;;58.25;48.50;;;;;3.87;100.00;102976.72;5092151;27;45387;-75
2023/02/13 06:20:20;;;;;;;;;65.50;51.75;;;;;3.91;100.00;102989.66;5080285;27;46133;-78
2023/02/13 06:22:50;;;;;;;;;58.75;48.00;;;;;3.92;100.00;102995.72;5081353;27;46127;-78
2023/02/13 06:25:15;;;;;;;;;65.00;52.75;;;;;3.93;100.00;102994.84;5088272;27;45310;-81
2023/02/13 06:27:42;;;;;;;;;58.25;47.50;;;;;3.90;100.00;102987.09;5102115;27;45528;-76
2023/02/13 06:30:08;;;;;;;;;62.25;52.25;;;;;3.91;100.00;102989.66;5102418;27;45451;-76
2023/02/13 06:32:33;;;;;;;;;71.25;56.00;;;;;3.84;100.00;102990.88;5101618;27;46256;-77
2023/02/13 06:34:59;;;;;;;;;59.00;49.25;;;;;3.87;100.00;102992.50;5102231;27;45353;-78
2023/02/13 06:37:24;;;;;;;;;58.25;49.25;;;;;3.86;100.00;102988.16;5102213;27;45486;-80
2023/02/13 06:39:49;;;;;;;;;68.75;52.00;;;;;3.86;100.00;102994.25;5102092;27;45412;-81
2023/02/13 06:42:15;;;;;;;;;63.50;50.00;;;;;3.90;100.00;102994.97;5101635;27;46089;-75
2023/02/13 06:44:40;;;;;;;;;60.00;51.75;;;;;3.94;100.00;103008.81;5102022;27;45327;-76
2023/02/13 06:47:05;;;;;;;;;63.25;52.50;;;;;3.94;100.00;103007.06;5101920;27;45314;-76
2023/02/13 06:49:31;;;;;;;;;58.75;46.75;;;;;3.94;100.00;103009.69;5102251;27;45503;-75
2023/02/13 06:51:56;;;;;;;;;69.25;52.75;;;;;3.94;100.00;103014.09;5101938;27;46080;-75
2023/02/13 06:54:21;;;;;;;;;58.50;49.25;;;;;3.84;100.00;103004.03;5088263;27;45245;-75
2023/02/13 06:56:47;;;;;;;;;63.75;52.50;;;;;3.96;100.00;103028.91;5097561;27;45432;-76
2023/02/13 06:59:12;;;;;;;;;71.00;56.25;;;;;3.90;100.00;103019.50;5101550;27;45509;-75
2023/02/13 07:01:38;;;;;;;;;72.50;57.25;;;;;3.87;100.00;103032.81;5096699;27;47093;-75
2023/02/13 07:04:03;;;;;;;;;67.00;53.25;;;;;3.86;100.00;103023.19;5091891;27;45416;-75
2023/02/13 07:06:28;;;;;;;;;63.50;52.50;;;;;3.83;100.00;103025.97;5104823;27;45231;-75
2023/02/13 07:08:54;;;;;;;;;58.75;47.75;;;;;3.89;100.00;103035.38;5101856;27;45202;-76
2023/02/13 07:11:22;;;;;;;;;61.00;48.75;;;;;3.87;100.00;103026.69;5101307;27;46065;-76
2023/02/13 07:13:48;;;;;;;;;65.50;53.50;;;;;3.87;100.00;103031.97;5098965;27;45388;-77
2023/02/13 07:16:14;;;;;;;;;60.25;51.00;;;;;3.86;100.00;103033.72;5097144;27;45334;-76
2023/02/13 07:18:39;;;;;;;;;63.00;52.00;;;;;3.89;100.00;103035.38;5080727;27;45413;-77
2023/02/13 07:21:05;;;;;;;;;63.25;49.50;;;;;3.86;100.00;103035.53;5080957;27;45898;-77
2023/02/13 07:23:30;;;;;;;;;73.50;57.00;;;;;3.87;100.00;103042.47;5079235;27;45848;-76
2023/02/13 07:25:58;;;;;;;;;66.25;55.00;;;;;3.93;100.00;103050.09;5093457;27;45356;-76
2023/02/13 07:28:24;;;;;;;;;70.50;56.00;;;;;3.91;100.00;103041.41;5100092;27;46308;-76
2023/02/13 07:30:49;;;;;;;;;67.50;55.50;;;;;3.94;100.00;103041.25;5101591;27;46739;-76
2023/02/13 07:33:15;;;;;;;;;69.00;55.25;;;;;3.89;100.00;103035.38;5094767;27;45143;-77
2023/02/13 07:35:49;;;;;;;;;60.75;49.00;;;;;3.90;100.00;103047.59;5095603;27;45376;-77
2023/02/13 07:38:14;;;;;;;;;63.00;52.25;;;;;3.94;100.00;103050.91;5103084;27;45262;-77
2023/02/13 07:40:40;;;;;;;;;70.50;55.75;;;;;3.91;100.00;103044.91;5095724;27;45366;-77
2023/02/13 07:43:05;;;;;;;;;72.75;59.00;;;;;3.95;100.00;103044.75;5096050;27;45254;-77
2023/02/13 07:45:30;;;;;;;;;70.25;56.75;;;;;3.98;100.00;103044.59;5101903;27;45165;-76
2023/02/13 07:47:56;;;;;;;;;68.25;55.00;;;;;4.02;100.00;103038.25;5101669;27;45427;-76
2023/02/13 07:50:22;;;;;;;;;68.25;54.75;;;;;4.06;100.00;103042.44;5102075;27;47103;-76
2023/02/13 07:52:59;;;;;;;;;62.75;53.50;;;;;4.12;100.00;103039.53;5102705;27;45357;-76
2023/02/13 07:55:26;;;;;;;;;68.25;54.50;;;;;4.22;100.00;103049.59;5102604;27;45387;-76
2023/02/13 07:57:52;;;;;;;;;78.00;61.75;;;;;4.32;100.00;103048.22;5101253;27;45376;-76
2023/02/13 08:00:18;;;;;;;;;92.00;77.25;;;;;4.36;100.00;103051.53;5101944;27;45329;-76
2023/02/13 08:02:44;;;;;;;;;89.25;73.75;;;;;4.37;100.00;103048.84;5096178;27;45885;-76
2023/02/13 08:05:09;;;;;;;;;91.25;74.75;;;;;4.39;100.00;103040.84;5098213;27;45380;-76
2023/02/13 08:07:35;;;;;;;;;89.00;74.00;;;;;4.42;100.00;103046.84;5104901;27;45612;-76
2023/02/13 08:12:46;;;;;;;;;82.50;65.25;;;;;4.51;100.00;103044.66;5100741;27;45333;-76
2023/02/13 08:15:12;;;;;;;;;80.00;63.75;;;;;4.61;100.00;103055.59;5100528;27;45347;-76
2023/02/13 08:17:38;;;;;;;;;73.75;58.00;;;;;4.63;100.00;103044.03;5098959;27;46264;-76
2023/02/13 08:20:07;;;;;;;;;71.50;57.50;;;;;4.67;100.00;103040.31;5100592;27;47703;-78
2023/02/13 08:22:32;;;;;;;;;68.50;54.00;;;;;4.76;100.00;103041.63;5101326;27;45448;-76
2023/02/13 08:24:58;;;;;;;;;67.00;56.00;;;;;4.80;100.00;103040.56;5100794;27;45290;-76
2023/02/13 08:27:23;;;;;;;;;62.25;51.75;;;;;4.85;100.00;103035.03;5101827;27;45409;-76
2023/02/13 08:29:49;;;;;;;;;68.00;54.50;;;;;4.96;100.00;103052.94;5100524;27;45487;-76
2023/02/13 08:32:15;;;;;;;;;70.50;56.25;;;;;5.02;100.00;103054.38;5100662;27;45400;-76
2023/02/13 08:34:40;;;;;;;;;66.75;54.25;;;;;5.07;100.00;103046.25;5098379;27;45372;-77
2023/02/13 08:37:05;;;;;;;;;66.25;54.00;;;;;5.14;100.00;103050.25;5101575;27;45321;-77
2023/02/13 08:39:31;;;;;;;;;73.25;54.25;;;;;5.20;100.00;103047.28;5100492;27;46311;-77
2023/02/13 08:41:56;;;;;;;;;72.75;54.25;;;;;5.25;100.00;103060.22;5100589;27;45427;-76
2023/02/13 08:44:21;;;;;;;;;64.75;53.25;;;;;5.24;100.00;103059.38;5098771;27;45354;-77
2023/02/13 08:46:47;;;;;;;;;69.75;56.25;;;;;5.22;100.00;103042.78;5102914;27;45320;-76
2023/02/13 08:49:12;;;;;;;;;61.00;49.00;;;;;5.34;100.00;103046.56;5100146;27;47208;-78
2023/02/13 08:51:37;;;;;;;;;67.50;53.75;;;;;5.39;100.00;103044.50;5096573;27;46195;-77
2023/02/13 08:54:03;;;;;;;;;67.00;55.00;;;;;5.46;100.00;103044.19;5095009;27;45436;-78
2023/02/13 08:56:28;;;;;;;;;71.25;56.50;;;;;5.49;100.00;103038.75;5100516;27;45552;-77
2023/02/13 08:58:54;;;;;;;;;67.50;55.00;;;;;5.56;100.00;103048.03;5096250;27;46136;-77
2023/02/13 09:01:19;;;;;;;;;67.25;53.25;;;;;5.66;100.00;103056.31;5099937;27;45303;-77
2023/02/13 09:03:44;;;;;;;;;70.75;56.00;;;;;5.71;100.00;103056.06;5100081;27;45564;-77
2023/02/13 09:06:10;;;;;;;;;73.75;58.00;;;;;5.76;100.00;103054.00;5102863;27;45238;-77
2023/02/13 09:08:35;;;;;;;;;75.25;59.25;;;;;5.80;100.00;103053.75;5100029;27;45311;-77
2023/02/13 09:11:02;;;;;;;;;71.75;56.00;;;;;5.86;100.00;103054.31;5100151;27;45349;-77
2023/02/13 09:13:33;;;;;;;;;70.00;55.25;;;;;5.94;100.00;103052.97;5099815;27;45327;-77
2023/02/13 09:16:00;;;;;;;;;69.75;55.50;;;;;5.99;100.00;103052.69;5099616;27;46253;-77
2023/02/13 09:18:26;;;;;;;;;63.75;52.25;;;;;6.10;100.00;103059.22;5098229;27;48045;-77
2023/02/13 09:20:57;;;;;;;;;64.25;50.00;;;;;6.14;100.00;103052.81;5099806;27;45706;-77
2023/02/13 09:23:23;;;;;;;;;70.00;56.00;;;;;6.19;100.00;103048.97;5099709;27;45657;-78
2023/02/13 09:25:48;;;;;;;;;58.75;47.00;;;;;6.30;100.00;103050.13;5099687;27;45357;-77
2023/02/13 09:28:13;;;;;;;;;60.00;51.50;;;;;6.37;100.00;103055.94;5098898;27;46274;-79
2023/02/13 09:30:39;;;;;;;;;65.00;53.25;;;;;6.49;100.00;103057.00;5093997;27;45408;-77
2023/02/13 09:33:10;;;;;;;;;64.00;50.25;;;;;6.66;100.00;103054.19;5083244;27;45357;-78
2023/02/13 09:35:35;;;;;;;;;63.50;50.50;;;;;6.68;100.00;103049.66;5089981;27;45626;-76
2023/02/13 09:38:01;;;;;;;;;66.25;53.00;;;;;6.77;100.00;103052.72;5102353;27;45608;-76
2023/02/13 09:40:36;;;;;;;;;60.75;50.50;;;;;6.87;100.00;103059.13;5103130;27;45362;-76
2023/02/13 09:43:13;;;;;;;;;58.50;48.25;;;;;6.98;100.00;103061.16;5102601;27;45402;-76
2023/02/13 09:45:39;;;;;;;;;56.25;46.50;;;;;7.06;100.00;103058.88;5093969;27;45550;-76
2023/02/13 09:48:07;;;;;;;;;60.50;49.50;;;;;7.17;100.00;103066.16;5099028;27;45595;-76
2023/02/13 09:50:33;;;;;;;;;59.50;49.25;;;;;7.26;100.00;103067.38;5102349;27;45426;-77
2023/02/13 09:53:00;;;;;;;;;65.00;51.50;;;;;7.31;100.00;103061.81;5097895;27;45297;-76
2023/02/13 09:55:51;;;;;;;;;59.00;45.50;;;;;7.42;100.00;103061.13;5094576;27;45525;-76
2023/02/13 09:58:46;;;;;;;;;66.75;53.50;;;;;7.53;100.00;103063.94;5102366;27;46252;-76
2023/02/13 10:01:29;;;;;;;;;69.50;54.25;;;;;7.65;100.00;103061.47;5088037;27;45449;-77
2023/02/13 10:04:23;;;;;;;;;64.75;49.75;;;;;7.74;100.00;103063.53;5097698;27;46181;-76
2023/02/13 10:07:16;;;;;;;;;58.75;47.50;;;;;7.85;100.00;103062.00;5104482;27;45361;-76
2023/02/13 10:09:51;;;;;;;;;52.50;42.00;;;;;8.00;100.00;103068.09;5102685;27;45472;-75
2023/02/13 10:12:23;;;;;;;;;58.25;46.00;;;;;8.13;100.00;103062.84;5102382;27;45435;-76
2023/02/13 10:15:20;;;;;;;;;48.75;39.00;;;;;8.27;100.00;103073.41;5098180;27;45235;-75
2023/02/13 10:18:00;;;;;;;;;56.50;45.00;;;;;8.41;100.00;103063.69;5093834;27;47779;-76
2023/02/13 10:20:47;;;;;;;;;55.50;44.00;;;;;8.54;100.00;103063.72;5099796;27;46187;-76
2023/02/13 10:23:21;;;;;;;;;54.00;43.50;;;;;8.64;100.00;103063.94;5101277;27;45568;-75
2023/02/13 10:26:17;;;;;;;;;53.50;43.50;;;;;8.73;100.00;103062.47;5097367;27;45461;-75
2023/02/13 10:30:03;;;;;;;;;54.75;46.50;;;;;8.75;100.00;103050.81;5090220;27;45480;-76
2023/02/13 10:31:33;;;;;;;;;53.75;45.00;;;;;8.84;100.00;103050.16;5096666;27;45569;-76
2023/02/13 10:34:04;;;;;;;;;53.00;43.00;;;;;8.92;100.00;103052.28;5102206;27;45521;-76
2023/02/13 10:36:42;;;;;;;;;59.25;47.25;;;;;9.00;100.00;103054.41;5088086;27;45370;-75
2023/02/13 10:39:10;;;;;;;;;54.00;43.50;;;;;9.09;100.00;103052.94;5086206;27;45397;-75
2023/02/13 10:41:50;;;;;;;;;63.50;49.00;;;;;9.19;100.00;103058.47;5088597;27;46124;-75
2023/02/13 10:44:22;;;;;;;;;55.75;44.50;;;;;9.27;100.00;103050.78;5092279;27;45356;-76
2023/02/13 10:47:07;;;;;;;;;56.00;44.75;;;;;9.36;100.00;103051.09;5101660;27;45274;-76
2023/02/13 10:50:09;;;;;;;;;51.25;41.75;;;;;9.47;100.00;103046.72;5096961;27;46276;-75
2023/02/13 10:53:01;;;;;;;;;55.00;45.00;;;;;9.56;100.00;103050.53;5092290;27;45328;-75
2023/02/13 10:55:47;;;;;;;;;55.25;43.75;;;;;9.65;100.00;103043.69;5096975;27;45348;-76
2023/02/13 10:58:24;;;;;;;;;56.50;46.00;;;;;9.70;100.00;103035.41;5094251;27;45389;-76
2023/02/13 11:01:05;;;;;;;;;53.25;44.25;;;;;9.82;100.00;103033.66;5097538;27;46334;-76
2023/02/13 11:03:30;;;;;;;;;60.50;48.25;;;;;9.94;100.00;103031.91;5098927;27;46309;-75
2023/02/13 11:06:00;;;;;;;;;56.50;45.25;;;;;10.03;100.00;103022.41;5103731;27;45577;-77
2023/02/13 11:08:39;;;;;;;;;53.75;45.00;;;;;10.10;100.00;103019.16;5102865;27;45351;-76
2023/02/13 11:11:31;;;;;;;;;53.75;44.25;;;;;10.25;100.00;103012.78;5101554;27;45333;-76
2023/02/13 11:14:10;;;;;;;;;52.75;42.25;;;;;10.41;100.00;103026.63;5101525;27;45468;-75
2023/02/13 11:16:58;;;;;;;;;58.50;45.75;;;;;10.56;100.00;103029.09;5101190;27;45344;-76
2023/02/13 11:19:45;;;;;;;;;56.00;47.00;;;;;10.67;100.00;103022.94;5101667;27;46562;-75
2023/02/13 11:22:14;;;;;;;;;55.00;44.50;;;;;10.75;100.00;103015.25;5101576;27;45483;-75
2023/02/13 11:24:49;;;;;;;;;57.00;43.25;;;;;10.81;100.00;103016.56;5101025;27;45375;-76
2023/02/13 11:27:14;;;;;;;;;55.50;44.00;;;;;10.87;100.00;103005.47;5099574;27;45267;-76
2023/02/13 11:29:57;;;;;;;;;54.50;45.25;;;;;10.98;100.00;103009.91;5099827;27;45193;-76
2023/02/13 11:32:25;;;;;;;;;53.00;43.00;;;;;11.09;100.00;103014.38;5100896;27;45218;-76
2023/02/13 11:34:51;;;;;;;;;53.25;43.25;;;;;11.18;100.00;103015.47;5099816;27;46601;-79
2023/02/13 11:37:26;;;;;;;;;49.75;39.50;;;;;11.26;100.00;103002.41;5101112;27;45568;-76
2023/02/13 11:39:57;;;;;;;;;21.50;16.25;;;;;11.36;100.00;103006.03;5101601;27;45481;-75
2023/02/13 11:42:26;;;;;;;;;55.50;46.50;;;;;11.42;100.00;103002.00;5100901;27;45160;-76
2023/02/13 11:44:57;;;;;;;;;53.25;44.00;;;;;11.51;100.00;102999.56;5099425;27;47312;-76
2023/02/13 11:47:34;;;;;;;;;55.75;46.00;;;;;11.58;100.00;102993.63;5096010;27;45495;-76
2023/02/13 11:50:00;;;;;;;;;49.75;42.25;;;;;11.64;100.00;102988.78;5094354;27;45339;-76
2023/02/13 11:52:31;;;;;;;;;52.75;42.75;;;;;11.69;100.00;102987.41;5101231;27;45475;-76
2023/02/13 11:54:59;;;;;;;;;51.50;41.75;;;;;11.75;100.00;102988.72;5100751;27;45486;-76
2023/02/13 11:57:28;;;;;;;;;50.25;41.25;;;;;11.82;100.00;102983.75;5100930;27;45344;-75
2023/02/13 11:59:54;;;;;;;;;53.25;44.50;;;;;11.84;100.00;102979.13;5096929;27;45337;-75
2023/02/13 12:02:24;;;;;;;;;55.50;43.75;;;;;11.94;100.00;102988.03;5100716;27;45366;-75
2023/02/13 12:05:13;;;;;;;;;55.50;44.00;;;;;11.95;100.00;102979.09;5099641;27;46125;-76
2023/02/13 12:07:39;;;;;;;;;51.00;41.75;;;;;12.04;100.00;102973.94;5116612;27;45404;-77